sensor_id;sensor_type;location;lat;lon;timestamp;P1;durP1;ratioP1;P2;durP2;ratioP2
61435;SDS011;47304;47.456;19.160;2023-06-10T00:00:04;10.70;;;7.10;;
61435;SDS011;47304;47.456;19.160;2023-06-10T00:02:31;11.20;;;6.40;;
61435;SDS011;47304;47.456;19.160;2023-06-10T00:04:58;10.40;;;6.60;;
61435;SDS011;47304;47.456;19.160;2023-06-10T00:07:25;11.00;;;6.90;;
61435;SDS011;47304;47.456;19.160;2023-06-10T00:09:51;11.40;;;7.00;;
61435;SDS011;47304;47.456;19.160;2023-06-10T00:12:18;12.20;;;7.60;;
61435;SDS011;47304;47.456;19.160;2023-06-10T00:14:44;13.30;;;7.50;;
61435;SDS011;47304;47.456;19.160;2023-06-10T00:17:11;13.40;;;7.50;;
61435;SDS011;47304;47.456;19.160;2023-06-10T00:19:37;13.30;;;8.10;;
61435;SDS011;47304;47.456;19.160;2023-06-10T00:22:04;14.50;;;7.60;;
61435;SDS011;47304;47.456;19.160;2023-06-10T00:24:31;14.60;;;8.10;;
61435;SDS011;47304;47.456;19.160;2023-06-10T00:26:57;11.10;;;7.00;;
61435;SDS011;47304;47.456;19.160;2023-06-10T00:29:24;12.90;;;8.30;;
61435;SDS011;47304;47.456;19.160;2023-06-10T00:31:50;13.70;;;8.00;;
61435;SDS011;47304;47.456;19.160;2023-06-10T00:34:17;12.90;;;7.10;;
61435;SDS011;47304;47.456;19.160;2023-06-10T00:36:43;11.60;;;7.30;;
61435;SDS011;47304;47.456;19.160;2023-06-10T00:39:10;14.20;;;7.20;;
61435;SDS011;47304;47.456;19.160;2023-06-10T00:41:36;11.30;;;6.70;;
61435;SDS011;47304;47.456;19.160;2023-06-10T00:44:03;11.10;;;6.70;;
61435;SDS011;47304;47.456;19.160;2023-06-10T00:46:29;11.30;;;7.00;;
61435;SDS011;47304;47.456;19.160;2023-06-10T00:48:56;13.10;;;6.60;;
61435;SDS011;47304;47.456;19.160;2023-06-10T00:51:23;14.40;;;7.10;;
61435;SDS011;47304;47.456;19.160;2023-06-10T00:53:49;11.60;;;6.50;;
61435;SDS011;47304;47.456;19.160;2023-06-10T00:56:16;10.30;;;6.60;;
61435;SDS011;47304;47.456;19.160;2023-06-10T00:58:43;10.80;;;6.50;;
61435;SDS011;47304;47.456;19.160;2023-06-10T01:01:09;12.50;;;6.70;;
61435;SDS011;47304;47.456;19.160;2023-06-10T01:03:37;11.50;;;6.80;;
61435;SDS011;47304;47.456;19.160;2023-06-10T01:11:47;13.50;;;6.40;;
61435;SDS011;47304;47.456;19.160;2023-06-10T01:14:21;10.60;;;6.10;;
61435;SDS011;47304;47.456;19.160;2023-06-10T01:16:48;16.30;;;6.50;;
61435;SDS011;47304;47.456;19.160;2023-06-10T01:19:15;10.40;;;5.60;;
61435;SDS011;47304;47.456;19.160;2023-06-10T01:21:41;11.40;;;6.30;;
61435;SDS011;47304;47.456;19.160;2023-06-10T01:24:08;12.10;;;6.40;;
61435;SDS011;47304;47.456;19.160;2023-06-10T01:26:34;11.90;;;6.40;;
61435;SDS011;47304;47.456;19.160;2023-06-10T01:29:07;10.30;;;6.40;;
61435;SDS011;47304;47.456;19.160;2023-06-10T01:34:21;11.80;;;6.50;;
61435;SDS011;47304;47.456;19.160;2023-06-10T01:36:50;11.60;;;6.90;;
61435;SDS011;47304;47.456;19.160;2023-06-10T01:39:20;10.20;;;6.70;;
61435;SDS011;47304;47.456;19.160;2023-06-10T01:41:49;11.40;;;7.00;;
61435;SDS011;47304;47.456;19.160;2023-06-10T01:44:17;11.20;;;7.20;;
61435;SDS011;47304;47.456;19.160;2023-06-10T01:46:48;14.30;;;7.00;;
61435;SDS011;47304;47.456;19.160;2023-06-10T01:49:15;11.00;;;6.70;;
61435;SDS011;47304;47.456;19.160;2023-06-10T01:51:42;10.40;;;6.70;;
61435;SDS011;47304;47.456;19.160;2023-06-10T01:54:08;11.70;;;7.20;;
61435;SDS011;47304;47.456;19.160;2023-06-10T01:56:35;11.60;;;6.80;;
61435;SDS011;47304;47.456;19.160;2023-06-10T01:59:01;11.80;;;6.80;;
61435;SDS011;47304;47.456;19.160;2023-06-10T02:01:28;11.00;;;6.80;;
61435;SDS011;47304;47.456;19.160;2023-06-10T02:03:55;10.50;;;6.40;;
61435;SDS011;47304;47.456;19.160;2023-06-10T02:06:22;12.00;;;6.20;;
61435;SDS011;47304;47.456;19.160;2023-06-10T02:08:48;10.50;;;6.20;;
61435;SDS011;47304;47.456;19.160;2023-06-10T02:11:15;12.10;;;6.90;;
61435;SDS011;47304;47.456;19.160;2023-06-10T02:13:41;10.40;;;6.60;;
61435;SDS011;47304;47.456;19.160;2023-06-10T02:16:08;13.00;;;7.00;;
61435;SDS011;47304;47.456;19.160;2023-06-10T02:18:35;12.10;;;6.30;;
61435;SDS011;47304;47.456;19.160;2023-06-10T02:21:01;10.30;;;6.20;;
61435;SDS011;47304;47.456;19.160;2023-06-10T02:23:28;10.50;;;6.70;;
61435;SDS011;47304;47.456;19.160;2023-06-10T02:25:54;10.80;;;6.60;;
61435;SDS011;47304;47.456;19.160;2023-06-10T02:28:21;11.10;;;6.30;;
61435;SDS011;47304;47.456;19.160;2023-06-10T02:30:47;11.40;;;6.50;;
61435;SDS011;47304;47.456;19.160;2023-06-10T02:33:14;11.70;;;7.00;;
61435;SDS011;47304;47.456;19.160;2023-06-10T02:35:40;9.90;;;6.00;;
61435;SDS011;47304;47.456;19.160;2023-06-10T02:38:07;10.20;;;6.00;;
61435;SDS011;47304;47.456;19.160;2023-06-10T02:40:33;11.90;;;6.10;;
61435;SDS011;47304;47.456;19.160;2023-06-10T02:43:00;10.90;;;6.50;;
61435;SDS011;47304;47.456;19.160;2023-06-10T02:45:27;10.50;;;6.20;;
61435;SDS011;47304;47.456;19.160;2023-06-10T02:47:53;12.50;;;6.30;;
61435;SDS011;47304;47.456;19.160;2023-06-10T02:50:20;11.20;;;6.10;;
61435;SDS011;47304;47.456;19.160;2023-06-10T02:52:46;9.80;;;6.30;;
61435;SDS011;47304;47.456;19.160;2023-06-10T02:55:13;9.70;;;5.80;;
61435;SDS011;47304;47.456;19.160;2023-06-10T02:57:39;10.60;;;5.90;;
61435;SDS011;47304;47.456;19.160;2023-06-10T03:00:06;9.90;;;6.40;;
61435;SDS011;47304;47.456;19.160;2023-06-10T03:02:33;11.90;;;7.20;;
61435;SDS011;47304;47.456;19.160;2023-06-10T03:05:00;11.70;;;6.40;;
61435;SDS011;47304;47.456;19.160;2023-06-10T03:07:26;12.10;;;6.50;;
61435;SDS011;47304;47.456;19.160;2023-06-10T03:09:53;10.90;;;6.20;;
61435;SDS011;47304;47.456;19.160;2023-06-10T03:12:19;12.70;;;6.50;;
61435;SDS011;47304;47.456;19.160;2023-06-10T03:14:46;13.00;;;6.50;;
61435;SDS011;47304;47.456;19.160;2023-06-10T03:17:13;11.40;;;6.30;;
61435;SDS011;47304;47.456;19.160;2023-06-10T03:19:39;12.60;;;6.00;;
61435;SDS011;47304;47.456;19.160;2023-06-10T03:22:07;10.40;;;6.60;;
61435;SDS011;47304;47.456;19.160;2023-06-10T03:24:38;9.70;;;6.30;;
61435;SDS011;47304;47.456;19.160;2023-06-10T03:27:04;10.90;;;6.20;;
61435;SDS011;47304;47.456;19.160;2023-06-10T03:29:31;12.30;;;6.50;;
61435;SDS011;47304;47.456;19.160;2023-06-10T03:31:57;13.30;;;7.00;;
61435;SDS011;47304;47.456;19.160;2023-06-10T03:34:24;11.30;;;6.00;;
61435;SDS011;47304;47.456;19.160;2023-06-10T03:36:51;11.90;;;6.60;;
61435;SDS011;47304;47.456;19.160;2023-06-10T03:39:17;11.20;;;6.80;;
61435;SDS011;47304;47.456;19.160;2023-06-10T03:41:44;12.00;;;6.60;;
61435;SDS011;47304;47.456;19.160;2023-06-10T03:44:10;9.80;;;6.20;;
61435;SDS011;47304;47.456;19.160;2023-06-10T03:46:37;11.10;;;7.00;;
61435;SDS011;47304;47.456;19.160;2023-06-10T03:49:03;10.40;;;7.10;;
61435;SDS011;47304;47.456;19.160;2023-06-10T03:51:30;10.70;;;6.20;;
61435;SDS011;47304;47.456;19.160;2023-06-10T03:53:58;10.40;;;6.20;;
61435;SDS011;47304;47.456;19.160;2023-06-10T03:56:28;10.70;;;6.20;;
61435;SDS011;47304;47.456;19.160;2023-06-10T03:58:55;12.30;;;6.40;;
61435;SDS011;47304;47.456;19.160;2023-06-10T04:01:21;15.00;;;5.90;;
61435;SDS011;47304;47.456;19.160;2023-06-10T04:03:48;9.20;;;5.70;;
61435;SDS011;47304;47.456;19.160;2023-06-10T04:06:14;10.60;;;5.90;;
61435;SDS011;47304;47.456;19.160;2023-06-10T04:08:41;11.90;;;6.00;;
61435;SDS011;47304;47.456;19.160;2023-06-10T04:11:08;9.80;;;5.90;;
61435;SDS011;47304;47.456;19.160;2023-06-10T04:13:35;12.00;;;5.60;;
61435;SDS011;47304;47.456;19.160;2023-06-10T04:16:01;10.20;;;5.70;;
61435;SDS011;47304;47.456;19.160;2023-06-10T04:18:28;12.20;;;6.70;;
61435;SDS011;47304;47.456;19.160;2023-06-10T04:20:54;10.40;;;5.60;;
61435;SDS011;47304;47.456;19.160;2023-06-10T04:23:21;9.40;;;5.00;;
61435;SDS011;47304;47.456;19.160;2023-06-10T04:25:47;8.80;;;4.70;;
61435;SDS011;47304;47.456;19.160;2023-06-10T04:28:14;8.10;;;4.50;;
61435;SDS011;47304;47.456;19.160;2023-06-10T04:30:40;7.90;;;4.50;;
61435;SDS011;47304;47.456;19.160;2023-06-10T04:33:07;8.20;;;4.50;;
61435;SDS011;47304;47.456;19.160;2023-06-10T04:35:34;9.30;;;4.70;;
61435;SDS011;47304;47.456;19.160;2023-06-10T04:38:00;8.90;;;4.50;;
61435;SDS011;47304;47.456;19.160;2023-06-10T04:40:27;9.10;;;4.40;;
61435;SDS011;47304;47.456;19.160;2023-06-10T04:42:53;9.20;;;4.80;;
61435;SDS011;47304;47.456;19.160;2023-06-10T04:45:20;8.60;;;5.30;;
61435;SDS011;47304;47.456;19.160;2023-06-10T04:47:46;8.20;;;4.60;;
61435;SDS011;47304;47.456;19.160;2023-06-10T04:50:13;9.20;;;4.70;;
61435;SDS011;47304;47.456;19.160;2023-06-10T04:52:39;8.50;;;4.50;;
61435;SDS011;47304;47.456;19.160;2023-06-10T04:55:06;8.40;;;4.50;;
61435;SDS011;47304;47.456;19.160;2023-06-10T04:57:33;9.00;;;4.30;;
61435;SDS011;47304;47.456;19.160;2023-06-10T05:00:00;8.50;;;4.40;;
61435;SDS011;47304;47.456;19.160;2023-06-10T05:02:26;9.60;;;4.30;;
61435;SDS011;47304;47.456;19.160;2023-06-10T05:04:53;8.50;;;4.40;;
61435;SDS011;47304;47.456;19.160;2023-06-10T05:07:19;10.70;;;4.30;;
61435;SDS011;47304;47.456;19.160;2023-06-10T05:09:46;7.10;;;4.00;;
61435;SDS011;47304;47.456;19.160;2023-06-10T05:12:13;8.00;;;4.40;;
61435;SDS011;47304;47.456;19.160;2023-06-10T05:14:39;8.80;;;4.60;;
61435;SDS011;47304;47.456;19.160;2023-06-10T05:17:06;8.50;;;4.60;;
61435;SDS011;47304;47.456;19.160;2023-06-10T05:19:32;8.30;;;4.70;;
61435;SDS011;47304;47.456;19.160;2023-06-10T05:21:59;8.20;;;4.60;;
61435;SDS011;47304;47.456;19.160;2023-06-10T05:24:25;8.40;;;4.20;;
61435;SDS011;47304;47.456;19.160;2023-06-10T05:26:52;9.00;;;4.30;;
61435;SDS011;47304;47.456;19.160;2023-06-10T05:29:18;7.30;;;4.10;;
61435;SDS011;47304;47.456;19.160;2023-06-10T05:31:45;8.10;;;4.20;;
61435;SDS011;47304;47.456;19.160;2023-06-10T05:34:11;7.10;;;4.10;;
61435;SDS011;47304;47.456;19.160;2023-06-10T05:36:38;8.30;;;4.20;;
61435;SDS011;47304;47.456;19.160;2023-06-10T05:39:04;8.30;;;4.20;;
61435;SDS011;47304;47.456;19.160;2023-06-10T05:41:31;9.10;;;4.10;;
61435;SDS011;47304;47.456;19.160;2023-06-10T05:43:57;7.60;;;4.20;;
61435;SDS011;47304;47.456;19.160;2023-06-10T05:46:24;7.70;;;4.10;;
61435;SDS011;47304;47.456;19.160;2023-06-10T05:48:51;8.80;;;3.90;;
61435;SDS011;47304;47.456;19.160;2023-06-10T05:51:17;6.80;;;3.70;;
61435;SDS011;47304;47.456;19.160;2023-06-10T05:53:44;7.90;;;3.70;;
61435;SDS011;47304;47.456;19.160;2023-06-10T05:56:10;8.60;;;4.70;;
61435;SDS011;47304;47.456;19.160;2023-06-10T05:58:37;8.70;;;4.50;;
61435;SDS011;47304;47.456;19.160;2023-06-10T06:01:03;7.70;;;4.20;;
61435;SDS011;47304;47.456;19.160;2023-06-10T06:03:30;8.40;;;4.50;;
61435;SDS011;47304;47.456;19.160;2023-06-10T06:05:57;7.40;;;4.20;;
61435;SDS011;47304;47.456;19.160;2023-06-10T06:08:23;7.90;;;4.60;;
61435;SDS011;47304;47.456;19.160;2023-06-10T06:10:50;8.60;;;4.50;;
61435;SDS011;47304;47.456;19.160;2023-06-10T06:13:16;8.20;;;4.90;;
61435;SDS011;47304;47.456;19.160;2023-06-10T06:15:43;7.80;;;4.40;;
61435;SDS011;47304;47.456;19.160;2023-06-10T06:18:10;8.20;;;4.70;;
61435;SDS011;47304;47.456;19.160;2023-06-10T06:20:36;9.50;;;4.70;;
61435;SDS011;47304;47.456;19.160;2023-06-10T06:23:03;9.30;;;4.70;;
61435;SDS011;47304;47.456;19.160;2023-06-10T06:25:29;11.20;;;5.90;;
61435;SDS011;47304;47.456;19.160;2023-06-10T06:27:56;10.60;;;6.30;;
61435;SDS011;47304;47.456;19.160;2023-06-10T06:30:22;9.60;;;6.10;;
61435;SDS011;47304;47.456;19.160;2023-06-10T06:32:49;9.60;;;6.40;;
61435;SDS011;47304;47.456;19.160;2023-06-10T06:35:16;9.60;;;6.10;;
61435;SDS011;47304;47.456;19.160;2023-06-10T06:37:42;9.80;;;6.20;;
61435;SDS011;47304;47.456;19.160;2023-06-10T06:40:09;10.70;;;6.20;;
61435;SDS011;47304;47.456;19.160;2023-06-10T06:42:36;8.70;;;5.70;;
61435;SDS011;47304;47.456;19.160;2023-06-10T06:45:02;11.40;;;6.90;;
61435;SDS011;47304;47.456;19.160;2023-06-10T06:47:29;11.20;;;6.70;;
61435;SDS011;47304;47.456;19.160;2023-06-10T06:49:56;11.80;;;7.20;;
61435;SDS011;47304;47.456;19.160;2023-06-10T06:52:23;9.90;;;6.60;;
61435;SDS011;47304;47.456;19.160;2023-06-10T06:54:49;9.80;;;6.40;;
61435;SDS011;47304;47.456;19.160;2023-06-10T06:57:16;9.30;;;6.10;;
61435;SDS011;47304;47.456;19.160;2023-06-10T06:59:42;10.60;;;6.90;;
61435;SDS011;47304;47.456;19.160;2023-06-10T07:02:09;10.40;;;7.20;;
61435;SDS011;47304;47.456;19.160;2023-06-10T07:04:36;10.50;;;6.70;;
61435;SDS011;47304;47.456;19.160;2023-06-10T07:07:04;10.90;;;7.20;;
61435;SDS011;47304;47.456;19.160;2023-06-10T07:09:31;11.70;;;7.10;;
61435;SDS011;47304;47.456;19.160;2023-06-10T07:11:57;10.50;;;7.10;;
61435;SDS011;47304;47.456;19.160;2023-06-10T07:14:24;10.30;;;7.40;;
61435;SDS011;47304;47.456;19.160;2023-06-10T07:16:50;9.70;;;6.70;;
61435;SDS011;47304;47.456;19.160;2023-06-10T07:19:17;12.60;;;7.90;;
61435;SDS011;47304;47.456;19.160;2023-06-10T07:21:43;12.00;;;8.70;;
61435;SDS011;47304;47.456;19.160;2023-06-10T07:24:10;11.00;;;8.00;;
61435;SDS011;47304;47.456;19.160;2023-06-10T07:26:37;12.00;;;8.30;;
61435;SDS011;47304;47.456;19.160;2023-06-10T07:29:03;14.20;;;8.90;;
61435;SDS011;47304;47.456;19.160;2023-06-10T07:31:30;12.80;;;8.60;;
61435;SDS011;47304;47.456;19.160;2023-06-10T07:33:57;13.70;;;8.00;;
61435;SDS011;47304;47.456;19.160;2023-06-10T07:36:23;11.30;;;7.20;;
61435;SDS011;47304;47.456;19.160;2023-06-10T07:38:50;13.20;;;9.10;;
61435;SDS011;47304;47.456;19.160;2023-06-10T07:41:16;11.40;;;8.40;;
61435;SDS011;47304;47.456;19.160;2023-06-10T07:43:43;13.00;;;8.70;;
61435;SDS011;47304;47.456;19.160;2023-06-10T07:46:10;12.50;;;8.90;;
61435;SDS011;47304;47.456;19.160;2023-06-10T07:48:36;13.50;;;9.00;;
61435;SDS011;47304;47.456;19.160;2023-06-10T07:51:03;13.20;;;8.40;;
61435;SDS011;47304;47.456;19.160;2023-06-10T07:53:31;13.90;;;7.90;;
61435;SDS011;47304;47.456;19.160;2023-06-10T07:55:57;12.60;;;8.40;;
61435;SDS011;47304;47.456;19.160;2023-06-10T07:58:24;12.10;;;8.50;;
61435;SDS011;47304;47.456;19.160;2023-06-10T08:00:50;27.60;;;13.10;;
61435;SDS011;47304;47.456;19.160;2023-06-10T08:03:17;14.50;;;8.90;;
61435;SDS011;47304;47.456;19.160;2023-06-10T08:05:43;13.30;;;9.30;;
61435;SDS011;47304;47.456;19.160;2023-06-10T08:08:10;16.60;;;10.30;;
61435;SDS011;47304;47.456;19.160;2023-06-10T08:10:37;12.90;;;8.70;;
61435;SDS011;47304;47.456;19.160;2023-06-10T08:13:03;14.40;;;9.50;;
61435;SDS011;47304;47.456;19.160;2023-06-10T08:15:30;14.70;;;9.90;;
61435;SDS011;47304;47.456;19.160;2023-06-10T08:17:56;17.00;;;10.40;;
61435;SDS011;47304;47.456;19.160;2023-06-10T08:20:23;14.80;;;9.90;;
61435;SDS011;47304;47.456;19.160;2023-06-10T08:22:51;20.00;;;10.10;;
61435;SDS011;47304;47.456;19.160;2023-06-10T08:25:17;31.90;;;15.80;;
61435;SDS011;47304;47.456;19.160;2023-06-10T08:27:44;14.20;;;10.40;;
61435;SDS011;47304;47.456;19.160;2023-06-10T08:30:11;15.10;;;9.30;;
61435;SDS011;47304;47.456;19.160;2023-06-10T08:32:38;15.80;;;10.30;;
61435;SDS011;47304;47.456;19.160;2023-06-10T08:35:04;15.70;;;10.40;;
61435;SDS011;47304;47.456;19.160;2023-06-10T08:37:31;16.20;;;10.70;;
61435;SDS011;47304;47.456;19.160;2023-06-10T08:39:58;13.60;;;9.80;;
61435;SDS011;47304;47.456;19.160;2023-06-10T08:42:28;14.70;;;10.70;;
61435;SDS011;47304;47.456;19.160;2023-06-10T08:45:01;15.70;;;9.90;;
61435;SDS011;47304;47.456;19.160;2023-06-10T08:47:32;16.10;;;9.40;;
61435;SDS011;47304;47.456;19.160;2023-06-10T08:50:02;13.40;;;9.70;;
61435;SDS011;47304;47.456;19.160;2023-06-10T08:52:36;13.90;;;9.00;;
61435;SDS011;47304;47.456;19.160;2023-06-10T08:55:04;14.50;;;9.70;;
61435;SDS011;47304;47.456;19.160;2023-06-10T08:57:40;13.60;;;9.00;;
61435;SDS011;47304;47.456;19.160;2023-06-10T09:00:07;14.90;;;10.60;;
61435;SDS011;47304;47.456;19.160;2023-06-10T09:02:35;15.10;;;10.20;;
61435;SDS011;47304;47.456;19.160;2023-06-10T09:05:02;13.30;;;9.20;;
61435;SDS011;47304;47.456;19.160;2023-06-10T09:07:30;14.00;;;9.80;;
61435;SDS011;47304;47.456;19.160;2023-06-10T09:09:57;29.40;;;11.60;;
61435;SDS011;47304;47.456;19.160;2023-06-10T09:12:25;18.60;;;10.00;;
61435;SDS011;47304;47.456;19.160;2023-06-10T09:14:52;17.00;;;11.10;;
61435;SDS011;47304;47.456;19.160;2023-06-10T09:17:18;15.20;;;10.90;;
61435;SDS011;47304;47.456;19.160;2023-06-10T09:19:45;14.10;;;10.10;;
61435;SDS011;47304;47.456;19.160;2023-06-10T09:22:12;13.60;;;10.40;;
61435;SDS011;47304;47.456;19.160;2023-06-10T09:24:39;15.40;;;10.70;;
61435;SDS011;47304;47.456;19.160;2023-06-10T09:27:07;14.80;;;11.20;;
61435;SDS011;47304;47.456;19.160;2023-06-10T09:32:18;16.20;;;10.00;;
61435;SDS011;47304;47.456;19.160;2023-06-10T09:34:45;14.10;;;9.90;;
61435;SDS011;47304;47.456;19.160;2023-06-10T09:37:13;13.90;;;10.80;;
61435;SDS011;47304;47.456;19.160;2023-06-10T09:39:59;12.90;;;9.40;;
61435;SDS011;47304;47.456;19.160;2023-06-10T09:42:29;14.50;;;10.40;;
61435;SDS011;47304;47.456;19.160;2023-06-10T09:44:58;14.00;;;10.80;;
61435;SDS011;47304;47.456;19.160;2023-06-10T09:47:25;15.40;;;11.70;;
61435;SDS011;47304;47.456;19.160;2023-06-10T09:49:52;22.30;;;13.70;;
61435;SDS011;47304;47.456;19.160;2023-06-10T09:52:25;19.60;;;14.10;;
61435;SDS011;47304;47.456;19.160;2023-06-10T09:54:53;16.50;;;12.80;;
61435;SDS011;47304;47.456;19.160;2023-06-10T09:57:26;15.50;;;11.60;;
61435;SDS011;47304;47.456;19.160;2023-06-10T09:59:56;15.10;;;12.20;;
61435;SDS011;47304;47.456;19.160;2023-06-10T10:02:23;14.70;;;11.40;;
61435;SDS011;47304;47.456;19.160;2023-06-10T10:04:49;13.90;;;11.90;;
61435;SDS011;47304;47.456;19.160;2023-06-10T10:07:16;13.90;;;10.90;;
61435;SDS011;47304;47.456;19.160;2023-06-10T10:09:42;18.20;;;11.90;;
61435;SDS011;47304;47.456;19.160;2023-06-10T10:12:10;14.50;;;10.90;;
61435;SDS011;47304;47.456;19.160;2023-06-10T10:14:47;14.40;;;11.30;;
61435;SDS011;47304;47.456;19.160;2023-06-10T10:17:15;13.40;;;10.70;;
61435;SDS011;47304;47.456;19.160;2023-06-10T10:19:50;13.70;;;10.80;;
61435;SDS011;47304;47.456;19.160;2023-06-10T10:22:25;14.90;;;10.40;;
61435;SDS011;47304;47.456;19.160;2023-06-10T10:24:53;13.90;;;10.70;;
61435;SDS011;47304;47.456;19.160;2023-06-10T10:27:30;12.70;;;10.20;;
61435;SDS011;47304;47.456;19.160;2023-06-10T10:30:02;12.80;;;10.50;;
61435;SDS011;47304;47.456;19.160;2023-06-10T10:32:32;13.30;;;10.50;;
61435;SDS011;47304;47.456;19.160;2023-06-10T10:35:07;11.70;;;9.50;;
61435;SDS011;47304;47.456;19.160;2023-06-10T10:37:38;13.10;;;10.40;;
61435;SDS011;47304;47.456;19.160;2023-06-10T10:40:05;12.10;;;10.00;;
61435;SDS011;47304;47.456;19.160;2023-06-10T10:42:36;12.50;;;9.90;;
61435;SDS011;47304;47.456;19.160;2023-06-10T10:45:04;11.80;;;9.80;;
61435;SDS011;47304;47.456;19.160;2023-06-10T10:47:34;12.20;;;9.70;;
61435;SDS011;47304;47.456;19.160;2023-06-10T10:50:03;12.90;;;9.90;;
61435;SDS011;47304;47.456;19.160;2023-06-10T10:52:53;13.90;;;8.80;;
61435;SDS011;47304;47.456;19.160;2023-06-10T10:55:21;10.80;;;8.10;;
61435;SDS011;47304;47.456;19.160;2023-06-10T11:03:00;11.40;;;8.70;;
61435;SDS011;47304;47.456;19.160;2023-06-10T11:05:39;11.20;;;8.80;;
61435;SDS011;47304;47.456;19.160;2023-06-10T11:08:08;12.40;;;10.00;;
61435;SDS011;47304;47.456;19.160;2023-06-10T11:10:35;12.20;;;8.80;;
61435;SDS011;47304;47.456;19.160;2023-06-10T11:13:07;12.40;;;9.40;;
61435;SDS011;47304;47.456;19.160;2023-06-10T11:15:44;12.60;;;9.80;;
61435;SDS011;47304;47.456;19.160;2023-06-10T11:21:02;13.20;;;10.30;;
61435;SDS011;47304;47.456;19.160;2023-06-10T11:33:52;12.50;;;9.40;;
61435;SDS011;47304;47.456;19.160;2023-06-10T11:36:23;11.80;;;8.90;;
61435;SDS011;47304;47.456;19.160;2023-06-10T11:39:00;12.00;;;8.50;;
61435;SDS011;47304;47.456;19.160;2023-06-10T11:41:29;9.90;;;7.60;;
61435;SDS011;47304;47.456;19.160;2023-06-10T11:43:57;9.40;;;7.10;;
61435;SDS011;47304;47.456;19.160;2023-06-10T11:46:47;9.00;;;6.40;;
61435;SDS011;47304;47.456;19.160;2023-06-10T11:49:14;9.90;;;6.70;;
61435;SDS011;47304;47.456;19.160;2023-06-10T11:51:41;9.70;;;6.80;;
61435;SDS011;47304;47.456;19.160;2023-06-10T11:54:08;8.40;;;5.90;;
61435;SDS011;47304;47.456;19.160;2023-06-10T11:56:35;8.40;;;5.70;;
61435;SDS011;47304;47.456;19.160;2023-06-10T11:59:03;10.40;;;5.10;;
61435;SDS011;47304;47.456;19.160;2023-06-10T12:01:32;8.00;;;5.20;;
61435;SDS011;47304;47.456;19.160;2023-06-10T12:06:43;8.30;;;4.70;;
61435;SDS011;47304;47.456;19.160;2023-06-10T12:09:14;7.00;;;3.70;;
61435;SDS011;47304;47.456;19.160;2023-06-10T12:11:55;5.90;;;3.30;;
61435;SDS011;47304;47.456;19.160;2023-06-10T12:17:21;9.30;;;3.30;;
61435;SDS011;47304;47.456;19.160;2023-06-10T12:19:48;8.90;;;5.40;;
61435;SDS011;47304;47.456;19.160;2023-06-10T12:22:16;6.00;;;3.10;;
61435;SDS011;47304;47.456;19.160;2023-06-10T12:24:56;7.80;;;4.00;;
61435;SDS011;47304;47.456;19.160;2023-06-10T12:27:28;6.60;;;3.70;;
61435;SDS011;47304;47.456;19.160;2023-06-10T12:29:56;6.60;;;3.40;;
61435;SDS011;47304;47.456;19.160;2023-06-10T12:32:34;7.90;;;4.30;;
61435;SDS011;47304;47.456;19.160;2023-06-10T12:35:02;12.30;;;3.80;;
61435;SDS011;47304;47.456;19.160;2023-06-10T12:37:30;5.90;;;3.10;;
61435;SDS011;47304;47.456;19.160;2023-06-10T12:39:56;6.50;;;3.20;;
61435;SDS011;47304;47.456;19.160;2023-06-10T12:42:27;14.70;;;4.20;;
61435;SDS011;47304;47.456;19.160;2023-06-10T12:44:53;8.70;;;4.40;;
61435;SDS011;47304;47.456;19.160;2023-06-10T12:47:21;6.20;;;3.10;;
61435;SDS011;47304;47.456;19.160;2023-06-10T12:49:56;6.40;;;3.20;;
61435;SDS011;47304;47.456;19.160;2023-06-10T12:52:23;18.20;;;16.40;;
61435;SDS011;47304;47.456;19.160;2023-06-10T12:54:50;15.30;;;7.70;;
61435;SDS011;47304;47.456;19.160;2023-06-10T12:57:16;7.30;;;4.30;;
61435;SDS011;47304;47.456;19.160;2023-06-10T12:59:43;11.90;;;4.10;;
61435;SDS011;47304;47.456;19.160;2023-06-10T13:02:10;10.90;;;4.00;;
61435;SDS011;47304;47.456;19.160;2023-06-10T13:04:36;12.30;;;4.80;;
61435;SDS011;47304;47.456;19.160;2023-06-10T13:07:03;22.40;;;4.90;;
61435;SDS011;47304;47.456;19.160;2023-06-10T13:09:29;6.40;;;3.50;;
61435;SDS011;47304;47.456;19.160;2023-06-10T13:11:56;9.70;;;4.10;;
61435;SDS011;47304;47.456;19.160;2023-06-10T13:14:22;6.30;;;3.40;;
61435;SDS011;47304;47.456;19.160;2023-06-10T13:16:49;8.70;;;3.30;;
61435;SDS011;47304;47.456;19.160;2023-06-10T13:19:15;12.50;;;4.40;;
61435;SDS011;47304;47.456;19.160;2023-06-10T13:21:42;8.70;;;5.60;;
61435;SDS011;47304;47.456;19.160;2023-06-10T13:24:08;6.20;;;3.30;;
61435;SDS011;47304;47.456;19.160;2023-06-10T13:26:35;6.00;;;3.10;;
61435;SDS011;47304;47.456;19.160;2023-06-10T13:29:01;6.20;;;3.30;;
61435;SDS011;47304;47.456;19.160;2023-06-10T13:31:28;6.30;;;3.00;;
61435;SDS011;47304;47.456;19.160;2023-06-10T13:33:55;8.60;;;3.90;;
61435;SDS011;47304;47.456;19.160;2023-06-10T13:36:21;8.00;;;3.70;;
61435;SDS011;47304;47.456;19.160;2023-06-10T13:38:48;6.20;;;3.50;;
61435;SDS011;47304;47.456;19.160;2023-06-10T13:41:14;7.70;;;3.80;;
61435;SDS011;47304;47.456;19.160;2023-06-10T13:43:41;6.40;;;3.60;;
61435;SDS011;47304;47.456;19.160;2023-06-10T13:46:08;7.50;;;3.70;;
61435;SDS011;47304;47.456;19.160;2023-06-10T13:48:34;10.80;;;4.60;;
61435;SDS011;47304;47.456;19.160;2023-06-10T13:51:01;9.60;;;3.80;;
61435;SDS011;47304;47.456;19.160;2023-06-10T13:53:27;10.00;;;3.20;;
61435;SDS011;47304;47.456;19.160;2023-06-10T13:55:56;7.30;;;3.40;;
61435;SDS011;47304;47.456;19.160;2023-06-10T13:58:23;6.20;;;3.20;;
61435;SDS011;47304;47.456;19.160;2023-06-10T14:00:49;6.60;;;3.40;;
61435;SDS011;47304;47.456;19.160;2023-06-10T14:03:16;7.10;;;3.90;;
61435;SDS011;47304;47.456;19.160;2023-06-10T14:05:44;7.00;;;3.50;;
61435;SDS011;47304;47.456;19.160;2023-06-10T14:08:11;8.40;;;4.60;;
61435;SDS011;47304;47.456;19.160;2023-06-10T14:10:37;12.60;;;5.60;;
61435;SDS011;47304;47.456;19.160;2023-06-10T14:13:04;9.60;;;5.20;;
61435;SDS011;47304;47.456;19.160;2023-06-10T14:15:30;8.00;;;5.40;;
61435;SDS011;47304;47.456;19.160;2023-06-10T14:17:57;8.00;;;5.60;;
61435;SDS011;47304;47.456;19.160;2023-06-10T14:20:23;12.90;;;6.20;;
61435;SDS011;47304;47.456;19.160;2023-06-10T14:22:50;8.30;;;4.70;;
61435;SDS011;47304;47.456;19.160;2023-06-10T14:25:16;8.60;;;4.90;;
61435;SDS011;47304;47.456;19.160;2023-06-10T14:27:43;8.80;;;5.10;;
61435;SDS011;47304;47.456;19.160;2023-06-10T14:30:10;8.60;;;5.30;;
61435;SDS011;47304;47.456;19.160;2023-06-10T14:32:36;9.70;;;5.10;;
61435;SDS011;47304;47.456;19.160;2023-06-10T14:35:03;9.20;;;5.70;;
61435;SDS011;47304;47.456;19.160;2023-06-10T14:37:30;9.20;;;5.20;;
61435;SDS011;47304;47.456;19.160;2023-06-10T14:39:59;10.20;;;5.30;;
61435;SDS011;47304;47.456;19.160;2023-06-10T14:42:26;9.20;;;5.60;;
61435;SDS011;47304;47.456;19.160;2023-06-10T14:44:52;10.40;;;5.30;;
61435;SDS011;47304;47.456;19.160;2023-06-10T14:47:19;10.60;;;5.20;;
61435;SDS011;47304;47.456;19.160;2023-06-10T14:49:45;8.40;;;5.00;;
61435;SDS011;47304;47.456;19.160;2023-06-10T14:52:12;9.40;;;5.60;;
61435;SDS011;47304;47.456;19.160;2023-06-10T14:54:38;8.90;;;5.30;;
61435;SDS011;47304;47.456;19.160;2023-06-10T14:57:05;8.20;;;4.80;;
61435;SDS011;47304;47.456;19.160;2023-06-10T14:59:32;8.60;;;5.40;;